Laika prognoze Olaines stacijai yr.no lapā


Click for Riga, Latvia Forecast

2016/12/06 05:20 EVRA 060520Z 01013KT 9999 BKN026 OVC038 01/M02 Q1014 R36/320195 NOSIG


Follow @olaine_eu



Kontakti: olaine.eu@gmail.com